createdAt,value
2022-08-05T00:00:18.621Z,20
2022-08-05T00:03:21.881Z,20
2022-08-05T00:06:42.630Z,20
2022-08-05T00:09:23.885Z,20
2022-08-05T00:12:21.130Z,20
2022-08-05T00:18:26.389Z,20
2022-08-05T00:21:16.808Z,20
2022-08-05T00:24:44.283Z,20
2022-08-05T00:27:36.418Z,19.9
2022-08-05T00:30:31.962Z,19.9
2022-08-05T00:39:18.483Z,19.6
2022-08-05T00:42:33.523Z,19.6
2022-08-05T00:45:17.725Z,19.6
2022-08-05T00:48:18.098Z,19.6
2022-08-05T00:51:59.705Z,19.5
2022-08-05T00:54:19.371Z,19.5
2022-08-05T00:57:11.386Z,19.5
2022-08-05T01:00:19.964Z,19.5
2022-08-05T01:03:35.460Z,19.5
2022-08-05T01:06:34.510Z,19.4
2022-08-05T01:09:15.556Z,19.4
2022-08-05T01:12:33.972Z,19.3
2022-08-05T01:15:56.849Z,19.3
2022-08-05T01:18:17.795Z,19.3
2022-08-05T01:21:25.120Z,19.3
2022-08-05T01:24:32.410Z,19.3
2022-08-05T01:27:35.170Z,19.3
2022-08-05T01:30:39.799Z,19.3
2022-08-05T01:33:19.573Z,19.4
2022-08-05T01:36:28.044Z,19.4
2022-08-05T01:39:15.453Z,19.4
2022-08-05T01:42:15.890Z,19.4
2022-08-05T01:45:22.296Z,19.4
2022-08-05T01:48:18.773Z,19.3
2022-08-05T01:51:24.249Z,19.3
2022-08-05T01:54:27.719Z,19.3
2022-08-05T02:00:18.969Z,19.3
2022-08-05T02:03:36.659Z,19.3
2022-08-05T02:06:52.135Z,19.1
2022-08-05T02:09:16.838Z,19.1
2022-08-05T02:12:14.569Z,19
2022-08-05T02:15:24.034Z,19
2022-08-05T02:18:52.552Z,19
2022-08-05T02:21:20.021Z,18.9
2022-08-05T02:24:22.158Z,19
2022-08-05T02:27:57.775Z,18.9
2022-08-05T02:30:13.312Z,18.9
2022-08-05T02:33:36.306Z,18.9
2022-08-05T02:36:19.612Z,18.9
2022-08-05T02:39:16.040Z,18.8
2022-08-05T02:42:36.454Z,18.8
2022-08-05T02:45:16.171Z,18.9
2022-08-05T02:48:33.608Z,18.9
2022-08-05T02:51:16.054Z,18.9
2022-08-05T02:54:53.339Z,18.9
2022-08-05T03:00:13.336Z,18.9
2022-08-05T03:03:20.971Z,18.9
2022-08-05T03:09:43.372Z,18.9
2022-08-05T03:12:14.376Z,18.8
2022-08-05T03:15:18.517Z,18.8
2022-08-05T03:18:24.777Z,18.8
2022-08-05T03:21:13.770Z,18.8
2022-08-05T03:24:17.656Z,18.8
2022-08-05T03:27:18.028Z,18.8
2022-08-05T03:30:28.640Z,18.6
2022-08-05T03:33:12.241Z,18.6
2022-08-05T03:36:32.292Z,18.8
2022-08-05T03:39:29.320Z,18.8
2022-08-05T03:42:13.737Z,18.8
2022-08-05T03:48:24.079Z,18.6
2022-08-05T03:57:44.452Z,18.6
2022-08-05T04:00:18.016Z,18.5
2022-08-05T04:03:30.857Z,18.5
2022-08-05T04:06:16.099Z,18.6
2022-08-05T04:09:12.759Z,18.6
2022-08-05T04:12:31.354Z,18.6
2022-08-05T04:15:19.812Z,18.6
2022-08-05T04:18:25.435Z,18.6
2022-08-05T04:24:32.390Z,18.5
2022-08-05T04:27:15.263Z,18.5
2022-08-05T04:30:16.762Z,18.5
2022-08-05T04:33:14.597Z,18.5
2022-08-05T04:36:59.030Z,18.5
2022-08-05T04:39:15.141Z,18.5
2022-08-05T04:42:15.863Z,18.6
2022-08-05T04:45:47.974Z,18.6
2022-08-05T04:48:31.301Z,18.8
2022-08-05T04:51:25.261Z,18.8
2022-08-05T04:54:16.463Z,18.9
2022-08-05T04:57:11.639Z,19
2022-08-05T05:00:11.832Z,19.1
2022-08-05T05:03:20.917Z,19.3
2022-08-05T05:09:24.184Z,19.5
2022-08-05T05:12:17.098Z,19.8
2022-08-05T05:18:12.637Z,20.1
2022-08-05T05:21:14.091Z,20.3
2022-08-05T05:24:24.033Z,20.5
2022-08-05T05:27:16.506Z,20.6
2022-08-05T05:30:37.857Z,20.8
2022-08-05T05:36:12.494Z,21
2022-08-05T05:39:21.481Z,21
2022-08-05T05:42:11.461Z,21.1
2022-08-05T05:45:18.338Z,21.4
2022-08-05T05:48:33.472Z,22.6
2022-08-05T05:51:28.195Z,25.1
2022-08-05T05:54:21.819Z,25.5
2022-08-05T05:57:24.061Z,25.5
2022-08-05T06:00:16.583Z,27.1
2022-08-05T06:06:13.603Z,25.8
2022-08-05T06:12:21.747Z,24.6
2022-08-05T06:18:13.907Z,23.5
2022-08-05T06:21:38.490Z,23
2022-08-05T06:24:16.986Z,22.5
2022-08-05T06:30:35.951Z,21.4
2022-08-05T06:36:58.945Z,20.8
2022-08-05T06:39:15.018Z,20.8
2022-08-05T06:42:14.305Z,20.8
2022-08-05T06:51:34.220Z,21.2
2022-08-05T06:54:28.083Z,21.4
2022-08-05T07:00:25.012Z,21.2
2022-08-05T07:03:18.814Z,20.9
2022-08-05T07:06:29.875Z,21
2022-08-05T07:09:18.184Z,21
2022-08-05T07:12:13.140Z,20.9
2022-08-05T07:18:38.466Z,21.4
2022-08-05T07:24:20.060Z,22
2022-08-05T07:27:18.828Z,22.5
2022-08-05T07:30:57.193Z,23.1
2022-08-05T07:33:38.708Z,23.7
2022-08-05T07:36:35.183Z,24.3
2022-08-05T07:42:50.326Z,25.6
2022-08-05T07:45:31.246Z,25.3
2022-08-05T07:48:15.560Z,25
2022-08-05T07:51:56.787Z,25.3
2022-08-05T07:54:18.690Z,26
2022-08-05T08:00:18.837Z,27.9
2022-08-05T08:03:55.575Z,28.4
2022-08-05T08:06:14.462Z,28.9
2022-08-05T08:09:12.025Z,29.9
2022-08-05T08:18:28.669Z,35.7
2022-08-05T08:21:26.027Z,36.5
2022-08-05T08:24:53.123Z,36.7
2022-08-05T08:27:38.006Z,35.9
2022-08-05T08:30:57.582Z,34.2
2022-08-05T08:33:24.661Z,33
2022-08-05T08:39:24.533Z,31.2
2022-08-05T08:45:41.950Z,30
2022-08-05T08:54:15.909Z,35.7
2022-08-05T08:57:19.834Z,35.9
2022-08-05T09:00:21.685Z,35.5
2022-08-05T09:03:16.055Z,36.7
2022-08-05T09:06:38.447Z,39.9
2022-08-05T09:09:15.440Z,44.7
2022-08-05T09:12:38.037Z,43.1
2022-08-05T09:15:25.602Z,45.5
2022-08-05T09:18:15.638Z,46
2022-08-05T09:24:17.544Z,42.4
2022-08-05T09:30:32.617Z,38
2022-08-05T09:33:19.576Z,35.6
2022-08-05T09:36:38.858Z,36
2022-08-05T09:39:59.121Z,38
2022-08-05T09:42:30.639Z,44
2022-08-05T09:48:13.134Z,46.4
2022-08-05T09:51:24.026Z,45.8
2022-08-05T09:54:12.344Z,43.3
2022-08-05T09:57:30.151Z,40.8
2022-08-05T10:00:21.818Z,38.9
2022-08-05T10:03:13.174Z,37.1
2022-08-05T10:06:31.011Z,35.2
2022-08-05T10:12:57.763Z,32.6
2022-08-05T10:15:19.979Z,31.6
2022-08-05T10:18:13.613Z,30.6
2022-08-05T10:21:40.073Z,29.6
2022-08-05T10:24:27.315Z,28.7
2022-08-05T10:28:09.849Z,28
2022-08-05T10:33:23.152Z,27.6
2022-08-05T10:36:13.119Z,27.2
2022-08-05T10:42:15.828Z,26.6
2022-08-05T10:45:49.169Z,25.9
2022-08-05T10:54:58.598Z,25.3
2022-08-05T10:57:16.759Z,25.3
2022-08-05T11:00:34.716Z,25.9
2022-08-05T11:03:41.336Z,26.9
2022-08-05T11:06:22.467Z,28.3
2022-08-05T11:09:24.333Z,29
2022-08-05T11:12:13.955Z,29.6
2022-08-05T11:18:22.160Z,33.7
2022-08-05T11:21:20.601Z,33.4
2022-08-05T11:27:14.146Z,31.8
2022-08-05T11:30:14.798Z,30.4
2022-08-05T11:33:50.435Z,29.5
2022-08-05T11:36:45.182Z,28.5
2022-08-05T11:39:12.381Z,27.8
2022-08-05T11:42:30.145Z,27.1
2022-08-05T11:48:16.805Z,27.5
2022-08-05T11:51:49.316Z,27.1
2022-08-05T11:54:18.241Z,26.8
2022-08-05T12:00:12.020Z,25.8
2022-08-05T12:03:12.455Z,25.3
2022-08-05T12:06:18.496Z,24.7
2022-08-05T12:09:22.113Z,24
2022-08-05T12:12:14.656Z,23.5
2022-08-05T12:15:42.300Z,23.1
2022-08-05T12:18:29.606Z,22.6
2022-08-05T12:21:17.457Z,22.8
2022-08-05T12:24:21.441Z,23.4
2022-08-05T12:27:58.259Z,23.5
2022-08-05T12:30:19.832Z,23.7
2022-08-05T12:33:50.772Z,23.4
2022-08-05T12:36:15.316Z,23.9
2022-08-05T12:39:16.085Z,24.3
2022-08-05T12:42:19.338Z,24.5
2022-08-05T12:45:17.612Z,24.3
2022-08-05T12:48:42.048Z,24.3
2022-08-05T12:54:31.096Z,24
2022-08-05T12:57:17.307Z,23.7
2022-08-05T13:03:19.398Z,23.6
2022-08-05T13:06:18.261Z,23.6
2022-08-05T13:09:14.790Z,23.7
2022-08-05T13:12:21.240Z,23.6
2022-08-05T13:15:56.975Z,23.4
2022-08-05T13:18:21.755Z,22.9
2022-08-05T13:21:14.524Z,22.5
2022-08-05T13:25:00.509Z,22.4
2022-08-05T13:27:40.865Z,22.6
2022-08-05T13:30:53.665Z,22.9
2022-08-05T13:36:20.913Z,22.9
2022-08-05T13:42:18.566Z,23.7
2022-08-05T13:45:23.577Z,24.3
2022-08-05T13:51:15.790Z,23.5
2022-08-05T13:54:29.012Z,22.9
2022-08-05T13:57:17.118Z,22.5
2022-08-05T14:00:19.573Z,22.2
2022-08-05T14:03:12.823Z,22.2
2022-08-05T14:06:40.848Z,22.4
2022-08-05T14:09:23.927Z,22.8
2022-08-05T14:12:48.575Z,23.3
2022-08-05T14:18:26.019Z,23.6
2022-08-05T14:24:11.858Z,23.1
2022-08-05T14:27:35.285Z,22.9
2022-08-05T14:30:30.383Z,22.6
2022-08-05T14:33:22.543Z,22.4
2022-08-05T14:36:15.019Z,22.2
2022-08-05T14:39:31.717Z,22.1
2022-08-05T14:42:34.782Z,22.2
2022-08-05T14:45:17.411Z,22.4
2022-08-05T14:48:44.694Z,22.6
2022-08-05T14:51:24.283Z,23
2022-08-05T14:57:54.111Z,23.7
2022-08-05T15:00:17.403Z,24.6
2022-08-05T15:03:18.193Z,25.4
2022-08-05T15:06:36.666Z,26
2022-08-05T15:09:54.414Z,27
2022-08-05T15:12:22.879Z,27.4
2022-08-05T15:15:58.686Z,27.8
2022-08-05T15:18:21.700Z,27.9
2022-08-05T15:21:26.483Z,27.5
2022-08-05T15:24:13.142Z,27
2022-08-05T15:27:16.340Z,26.2
2022-08-05T15:30:14.112Z,25.8
2022-08-05T15:33:56.980Z,25.4
2022-08-05T15:36:32.510Z,25
2022-08-05T15:45:14.219Z,24.4
2022-08-05T15:48:18.216Z,24.4
2022-08-05T15:51:18.618Z,24.5
2022-08-05T15:54:21.673Z,24.4
2022-08-05T15:57:18.454Z,24.4
2022-08-05T16:00:13.490Z,25.3
2022-08-05T16:03:14.298Z,27.5
2022-08-05T16:06:22.877Z,28.3
2022-08-05T16:09:16.831Z,28.4
2022-08-05T16:12:13.569Z,28.3
2022-08-05T16:15:20.885Z,27.9
2022-08-05T16:18:30.147Z,27.5
2022-08-05T16:21:17.946Z,27.4
2022-08-05T16:24:56.041Z,27.4
2022-08-05T16:27:32.379Z,27.9
2022-08-05T16:30:30.790Z,28.3
2022-08-05T16:33:13.089Z,28.1
2022-08-05T16:36:23.764Z,28.1
2022-08-05T16:39:16.069Z,29.5
2022-08-05T16:42:38.662Z,29.6
2022-08-05T16:48:37.854Z,31.6
2022-08-05T16:51:20.683Z,31
2022-08-05T16:54:41.157Z,30.1
2022-08-05T17:00:42.252Z,31.9
2022-08-05T17:03:25.922Z,31.9
2022-08-05T17:06:12.889Z,32.5
2022-08-05T17:09:12.816Z,31.9
2022-08-05T17:12:13.992Z,31.9
2022-08-05T17:15:19.383Z,31.1
2022-08-05T17:18:23.164Z,29.3
2022-08-05T17:21:17.919Z,28.9
2022-08-05T17:27:11.835Z,26.6
2022-08-05T17:30:33.183Z,25.4
2022-08-05T17:33:15.823Z,24.6
2022-08-05T17:36:50.452Z,24
2022-08-05T17:39:43.725Z,23.5
2022-08-05T17:42:55.973Z,23.1
2022-08-05T17:45:43.007Z,22.9
2022-08-05T17:48:13.267Z,22.6
2022-08-05T17:51:28.850Z,22.5
2022-08-05T17:54:12.292Z,22.4
2022-08-05T17:57:24.439Z,22.5
2022-08-05T18:00:30.669Z,22.5
2022-08-05T18:03:56.765Z,22.4
2022-08-05T18:06:31.507Z,22.1
2022-08-05T18:09:23.841Z,22.1
2022-08-05T18:12:27.405Z,22
2022-08-05T18:15:15.932Z,21.8
2022-08-05T18:18:28.400Z,21.6
2022-08-05T18:24:16.798Z,21.1
2022-08-05T18:27:23.136Z,20.8
2022-08-05T18:30:14.971Z,20.4
2022-08-05T18:33:15.864Z,20
2022-08-05T18:36:35.548Z,19.8
2022-08-05T18:42:23.628Z,19.1
2022-08-05T18:45:17.959Z,18.9
2022-08-05T18:48:35.436Z,18.8
2022-08-05T18:54:13.635Z,18.4
2022-08-05T18:57:27.696Z,18.1
2022-08-05T19:00:38.977Z,17.9
2022-08-05T19:03:56.642Z,17.9
2022-08-05T19:06:53.498Z,17.9
2022-08-05T19:09:13.675Z,17.8
2022-08-05T19:12:17.090Z,17.8
2022-08-05T19:18:31.889Z,17.5
2022-08-05T19:21:18.556Z,17.2
2022-08-05T19:24:56.698Z,17.1
2022-08-05T19:27:17.737Z,17
2022-08-05T19:30:16.304Z,16.9
2022-08-05T19:33:58.088Z,16.9
2022-08-05T19:36:20.470Z,16.8
2022-08-05T19:39:19.495Z,16.8
2022-08-05T19:42:40.948Z,16.6
2022-08-05T19:45:20.688Z,16.5
2022-08-05T19:48:21.732Z,16.5
2022-08-05T19:54:39.176Z,16.3
2022-08-05T19:58:06.961Z,16.1
2022-08-05T20:00:22.901Z,16
2022-08-05T20:03:19.156Z,16
2022-08-05T20:06:50.906Z,15.9
2022-08-05T20:09:27.628Z,15.9
2022-08-05T20:12:15.944Z,15.8
2022-08-05T20:15:52.754Z,15.6
2022-08-05T20:18:40.684Z,15.5
2022-08-05T20:21:14.157Z,15.5
2022-08-05T20:24:18.244Z,15.4
2022-08-05T20:27:35.261Z,15.3
2022-08-05T20:30:14.690Z,15.1
2022-08-05T20:33:11.355Z,15
2022-08-05T20:36:17.921Z,14.9
2022-08-05T20:39:19.041Z,14.7
2022-08-05T20:42:23.809Z,14.7
2022-08-05T20:45:14.898Z,14.6
2022-08-05T20:48:18.701Z,14.5
2022-08-05T20:51:22.396Z,14.5
2022-08-05T20:54:20.519Z,14.4
2022-08-05T20:57:45.843Z,14.4
2022-08-05T21:03:20.629Z,14.1
2022-08-05T21:06:35.383Z,14.1
2022-08-05T21:09:16.642Z,14
2022-08-05T21:12:30.352Z,14
2022-08-05T21:15:13.649Z,13.9
2022-08-05T21:18:16.101Z,13.9
2022-08-05T21:21:14.042Z,13.8
2022-08-05T21:24:21.991Z,13.6
2022-08-05T21:27:14.023Z,13.5
2022-08-05T21:30:25.992Z,13.5
2022-08-05T21:33:49.766Z,13.4
2022-08-05T21:36:13.637Z,13.3
2022-08-05T21:39:26.432Z,13.3
2022-08-05T21:42:51.715Z,13.1
2022-08-05T21:46:00.397Z,13
2022-08-05T21:48:21.707Z,13
2022-08-05T21:54:19.477Z,12.8
2022-08-05T21:57:51.817Z,12.8
2022-08-05T22:00:23.807Z,12.6
2022-08-05T22:03:14.374Z,12.5
2022-08-05T22:06:14.743Z,12.4
2022-08-05T22:09:52.055Z,12.4
2022-08-05T22:12:28.592Z,12.2
2022-08-05T22:15:56.405Z,12
2022-08-05T22:18:13.336Z,11.9
2022-08-05T22:21:30.140Z,11.8
2022-08-05T22:27:23.918Z,11.6
2022-08-05T22:30:15.622Z,11.5
2022-08-05T22:36:19.149Z,11.4
2022-08-05T22:39:28.555Z,11.4
2022-08-05T22:42:53.287Z,11.3
2022-08-05T22:45:15.341Z,11.3
2022-08-05T22:48:14.170Z,11.1
2022-08-05T22:54:13.201Z,11
2022-08-05T22:57:13.827Z,11
2022-08-05T23:00:20.658Z,10.9
2022-08-05T23:03:20.148Z,10.9
2022-08-05T23:06:21.007Z,10.8
2022-08-05T23:12:13.099Z,10.6
2022-08-05T23:15:21.090Z,10.5
2022-08-05T23:18:29.905Z,10.5
2022-08-05T23:21:20.771Z,10.5
2022-08-05T23:24:24.588Z,10.5
2022-08-05T23:27:12.860Z,10.5
2022-08-05T23:30:18.221Z,10.5
2022-08-05T23:34:03.445Z,10.6
2022-08-05T23:36:16.015Z,10.6
2022-08-05T23:39:32.342Z,10.6
2022-08-05T23:42:31.371Z,10.6
2022-08-05T23:45:23.627Z,10.6
2022-08-05T23:48:17.966Z,10.6
2022-08-05T23:51:17.371Z,10.6
2022-08-05T23:54:29.836Z,10.6
2022-08-05T23:57:15.675Z,10.6
